sensor_id;sensor_type;location;lat;lon;timestamp;P1;durP1;ratioP1;P2;durP2;ratioP2
78622;SDS011;67943;54.412;9.502;2024-02-16T00:02:16;27.20;;;15.95;;
78622;SDS011;67943;54.412;9.502;2024-02-16T00:07:18;25.98;;;15.45;;
78622;SDS011;67943;54.412;9.502;2024-02-16T00:12:21;25.33;;;14.68;;
78622;SDS011;67943;54.412;9.502;2024-02-16T00:17:22;24.67;;;14.27;;
78622;SDS011;67943;54.412;9.502;2024-02-16T00:22:26;24.80;;;13.77;;
78622;SDS011;67943;54.412;9.502;2024-02-16T00:27:29;26.58;;;13.65;;
78622;SDS011;67943;54.412;9.502;2024-02-16T00:32:31;21.25;;;13.55;;
78622;SDS011;67943;54.412;9.502;2024-02-16T00:37:32;23.77;;;13.38;;
78622;SDS011;67943;54.412;9.502;2024-02-16T00:42:35;19.40;;;13.10;;
78622;SDS011;67943;54.412;9.502;2024-02-16T00:47:37;20.52;;;12.65;;
78622;SDS011;67943;54.412;9.502;2024-02-16T00:52:39;21.80;;;12.75;;
78622;SDS011;67943;54.412;9.502;2024-02-16T00:57:42;22.95;;;13.48;;
78622;SDS011;67943;54.412;9.502;2024-02-16T01:02:44;19.85;;;13.10;;
78622;SDS011;67943;54.412;9.502;2024-02-16T01:07:45;22.20;;;13.77;;
78622;SDS011;67943;54.412;9.502;2024-02-16T01:12:48;21.33;;;12.55;;
78622;SDS011;67943;54.412;9.502;2024-02-16T01:17:52;19.63;;;12.20;;
78622;SDS011;67943;54.412;9.502;2024-02-16T01:22:53;17.52;;;11.60;;
78622;SDS011;67943;54.412;9.502;2024-02-16T01:27:56;17.83;;;11.00;;
78622;SDS011;67943;54.412;9.502;2024-02-16T01:32:58;19.80;;;11.43;;
78622;SDS011;67943;54.412;9.502;2024-02-16T01:38:00;16.77;;;10.75;;
78622;SDS011;67943;54.412;9.502;2024-02-16T01:43:04;18.27;;;11.82;;
78622;SDS011;67943;54.412;9.502;2024-02-16T01:48:05;16.38;;;10.73;;
78622;SDS011;67943;54.412;9.502;2024-02-16T01:53:07;21.60;;;11.57;;
78622;SDS011;67943;54.412;9.502;2024-02-16T01:58:11;15.55;;;9.80;;
78622;SDS011;67943;54.412;9.502;2024-02-16T02:03:13;15.60;;;9.80;;
78622;SDS011;67943;54.412;9.502;2024-02-16T02:08:16;14.73;;;9.90;;
78622;SDS011;67943;54.412;9.502;2024-02-16T02:13:19;13.80;;;10.23;;
78622;SDS011;67943;54.412;9.502;2024-02-16T02:18:22;16.98;;;10.88;;
78622;SDS011;67943;54.412;9.502;2024-02-16T02:23:25;15.27;;;9.32;;
78622;SDS011;67943;54.412;9.502;2024-02-16T02:28:26;13.45;;;8.95;;
78622;SDS011;67943;54.412;9.502;2024-02-16T02:33:29;13.52;;;8.35;;
78622;SDS011;67943;54.412;9.502;2024-02-16T02:38:32;14.02;;;8.15;;
78622;SDS011;67943;54.412;9.502;2024-02-16T02:43:35;16.48;;;8.40;;
78622;SDS011;67943;54.412;9.502;2024-02-16T02:48:36;13.48;;;8.35;;
78622;SDS011;67943;54.412;9.502;2024-02-16T02:53:39;16.42;;;8.80;;
78622;SDS011;67943;54.412;9.502;2024-02-16T02:58:40;14.55;;;7.90;;
78622;SDS011;67943;54.412;9.502;2024-02-16T03:03:42;14.00;;;8.18;;
78622;SDS011;67943;54.412;9.502;2024-02-16T03:08:45;10.80;;;7.30;;
78622;SDS011;67943;54.412;9.502;2024-02-16T03:13:47;14.05;;;7.45;;
78622;SDS011;67943;54.412;9.502;2024-02-16T03:18:49;14.32;;;6.90;;
78622;SDS011;67943;54.412;9.502;2024-02-16T03:23:52;10.52;;;5.97;;
78622;SDS011;67943;54.412;9.502;2024-02-16T03:28:53;12.85;;;6.45;;
78622;SDS011;67943;54.412;9.502;2024-02-16T03:33:56;9.43;;;6.07;;
78622;SDS011;67943;54.412;9.502;2024-02-16T03:38:59;14.45;;;5.90;;
78622;SDS011;67943;54.412;9.502;2024-02-16T03:44:00;16.60;;;6.35;;
78622;SDS011;67943;54.412;9.502;2024-02-16T03:49:02;11.38;;;5.85;;
78622;SDS011;67943;54.412;9.502;2024-02-16T03:54:10;9.75;;;5.75;;
78622;SDS011;67943;54.412;9.502;2024-02-16T03:59:12;11.50;;;5.68;;
78622;SDS011;67943;54.412;9.502;2024-02-16T04:04:13;9.98;;;5.70;;
78622;SDS011;67943;54.412;9.502;2024-02-16T04:09:16;11.07;;;5.47;;
78622;SDS011;67943;54.412;9.502;2024-02-16T04:14:18;9.32;;;4.97;;
78622;SDS011;67943;54.412;9.502;2024-02-16T04:19:19;9.25;;;4.32;;
78622;SDS011;67943;54.412;9.502;2024-02-16T04:24:25;9.40;;;4.35;;
78622;SDS011;67943;54.412;9.502;2024-02-16T04:29:27;9.43;;;4.55;;
78622;SDS011;67943;54.412;9.502;2024-02-16T04:34:28;8.88;;;4.57;;
78622;SDS011;67943;54.412;9.502;2024-02-16T04:39:31;8.02;;;4.18;;
78622;SDS011;67943;54.412;9.502;2024-02-16T04:44:36;8.07;;;4.10;;
78622;SDS011;67943;54.412;9.502;2024-02-16T04:49:38;11.55;;;4.43;;
78622;SDS011;67943;54.412;9.502;2024-02-16T04:54:41;7.65;;;4.05;;
78622;SDS011;67943;54.412;9.502;2024-02-16T04:59:43;6.57;;;3.85;;
78622;SDS011;67943;54.412;9.502;2024-02-16T05:04:44;6.78;;;3.95;;
78622;SDS011;67943;54.412;9.502;2024-02-16T05:09:47;8.80;;;4.00;;
78622;SDS011;67943;54.412;9.502;2024-02-16T05:14:49;8.20;;;4.00;;
78622;SDS011;67943;54.412;9.502;2024-02-16T05:19:51;8.52;;;4.13;;
78622;SDS011;67943;54.412;9.502;2024-02-16T05:24:55;6.35;;;3.78;;
78622;SDS011;67943;54.412;9.502;2024-02-16T05:29:56;12.43;;;3.95;;
78622;SDS011;67943;54.412;9.502;2024-02-16T05:34:58;9.52;;;3.90;;
78622;SDS011;67943;54.412;9.502;2024-02-16T05:40:01;8.60;;;3.95;;
78622;SDS011;67943;54.412;9.502;2024-02-16T05:45:19;6.15;;;3.83;;
78622;SDS011;67943;54.412;9.502;2024-02-16T05:50:21;8.50;;;4.20;;
78622;SDS011;67943;54.412;9.502;2024-02-16T05:55:24;8.93;;;3.83;;
78622;SDS011;67943;54.412;9.502;2024-02-16T06:00:26;8.25;;;4.18;;
78622;SDS011;67943;54.412;9.502;2024-02-16T06:05:27;9.77;;;4.05;;
78622;SDS011;67943;54.412;9.502;2024-02-16T06:10:30;8.88;;;4.43;;
78622;SDS011;67943;54.412;9.502;2024-02-16T06:15:32;8.85;;;4.03;;
78622;SDS011;67943;54.412;9.502;2024-02-16T06:20:34;8.23;;;4.50;;
78622;SDS011;67943;54.412;9.502;2024-02-16T06:25:37;10.80;;;4.32;;
78622;SDS011;67943;54.412;9.502;2024-02-16T06:30:38;9.52;;;3.67;;
78622;SDS011;67943;54.412;9.502;2024-02-16T06:35:40;9.55;;;3.50;;
78622;SDS011;67943;54.412;9.502;2024-02-16T06:40:43;7.60;;;3.67;;
78622;SDS011;67943;54.412;9.502;2024-02-16T06:45:44;8.70;;;4.10;;
78622;SDS011;67943;54.412;9.502;2024-02-16T06:50:46;6.90;;;3.50;;
78622;SDS011;67943;54.412;9.502;2024-02-16T06:55:49;8.60;;;3.80;;
78622;SDS011;67943;54.412;9.502;2024-02-16T07:00:51;6.88;;;3.88;;
78622;SDS011;67943;54.412;9.502;2024-02-16T07:05:53;8.00;;;3.83;;
78622;SDS011;67943;54.412;9.502;2024-02-16T07:10:56;7.40;;;3.85;;
78622;SDS011;67943;54.412;9.502;2024-02-16T07:15:57;8.70;;;3.97;;
78622;SDS011;67943;54.412;9.502;2024-02-16T07:20:59;7.40;;;4.05;;
78622;SDS011;67943;54.412;9.502;2024-02-16T07:26:02;8.20;;;3.70;;
78622;SDS011;67943;54.412;9.502;2024-02-16T07:31:04;7.85;;;4.13;;
78622;SDS011;67943;54.412;9.502;2024-02-16T07:36:05;7.40;;;3.72;;
78622;SDS011;67943;54.412;9.502;2024-02-16T07:41:09;8.05;;;3.85;;
78622;SDS011;67943;54.412;9.502;2024-02-16T07:46:10;7.68;;;3.55;;
78622;SDS011;67943;54.412;9.502;2024-02-16T07:51:13;5.65;;;3.17;;
78622;SDS011;67943;54.412;9.502;2024-02-16T07:56:15;6.30;;;3.20;;
78622;SDS011;67943;54.412;9.502;2024-02-16T08:01:18;6.38;;;3.60;;
78622;SDS011;67943;54.412;9.502;2024-02-16T08:06:24;5.28;;;3.05;;
78622;SDS011;67943;54.412;9.502;2024-02-16T08:11:28;7.13;;;3.38;;
78622;SDS011;67943;54.412;9.502;2024-02-16T08:16:29;6.22;;;3.20;;
78622;SDS011;67943;54.412;9.502;2024-02-16T08:21:36;6.60;;;3.25;;
78622;SDS011;67943;54.412;9.502;2024-02-16T08:26:39;8.15;;;3.30;;
78622;SDS011;67943;54.412;9.502;2024-02-16T08:31:40;6.53;;;3.42;;
78622;SDS011;67943;54.412;9.502;2024-02-16T08:36:43;6.38;;;2.97;;
78622;SDS011;67943;54.412;9.502;2024-02-16T08:41:46;7.55;;;3.03;;
78622;SDS011;67943;54.412;9.502;2024-02-16T08:46:48;5.90;;;3.00;;
78622;SDS011;67943;54.412;9.502;2024-02-16T08:51:50;5.95;;;3.03;;
78622;SDS011;67943;54.412;9.502;2024-02-16T08:56:54;5.30;;;2.53;;
78622;SDS011;67943;54.412;9.502;2024-02-16T09:01:56;5.72;;;3.45;;
78622;SDS011;67943;54.412;9.502;2024-02-16T09:06:58;9.13;;;3.38;;
78622;SDS011;67943;54.412;9.502;2024-02-16T09:12:01;8.63;;;3.15;;
78622;SDS011;67943;54.412;9.502;2024-02-16T09:17:03;9.20;;;3.17;;
78622;SDS011;67943;54.412;9.502;2024-02-16T09:22:05;8.63;;;3.30;;
78622;SDS011;67943;54.412;9.502;2024-02-16T09:27:07;5.85;;;3.08;;
78622;SDS011;67943;54.412;9.502;2024-02-16T09:32:10;8.52;;;3.17;;
78622;SDS011;67943;54.412;9.502;2024-02-16T09:37:11;7.35;;;3.38;;
78622;SDS011;67943;54.412;9.502;2024-02-16T09:42:14;8.20;;;3.25;;
78622;SDS011;67943;54.412;9.502;2024-02-16T09:47:16;5.63;;;2.80;;
78622;SDS011;67943;54.412;9.502;2024-02-16T09:52:20;5.15;;;3.10;;
78622;SDS011;67943;54.412;9.502;2024-02-16T09:57:23;5.20;;;2.53;;
78622;SDS011;67943;54.412;9.502;2024-02-16T10:02:24;5.18;;;2.38;;
78622;SDS011;67943;54.412;9.502;2024-02-16T10:07:35;6.05;;;2.63;;
78622;SDS011;67943;54.412;9.502;2024-02-16T10:12:38;4.45;;;2.22;;
78622;SDS011;67943;54.412;9.502;2024-02-16T10:17:39;5.78;;;2.97;;
78622;SDS011;67943;54.412;9.502;2024-02-16T10:22:41;5.97;;;3.25;;
78622;SDS011;67943;54.412;9.502;2024-02-16T10:27:46;6.93;;;3.00;;
78622;SDS011;67943;54.412;9.502;2024-02-16T10:32:48;7.88;;;3.00;;
78622;SDS011;67943;54.412;9.502;2024-02-16T10:37:49;9.68;;;3.10;;
78622;SDS011;67943;54.412;9.502;2024-02-16T10:42:52;5.03;;;3.05;;
78622;SDS011;67943;54.412;9.502;2024-02-16T10:47:54;6.18;;;3.08;;
78622;SDS011;67943;54.412;9.502;2024-02-16T10:52:56;5.10;;;3.20;;
78622;SDS011;67943;54.412;9.502;2024-02-16T10:58:00;6.03;;;3.00;;
78622;SDS011;67943;54.412;9.502;2024-02-16T11:03:03;7.38;;;3.28;;
78622;SDS011;67943;54.412;9.502;2024-02-16T11:08:11;4.72;;;2.75;;
78622;SDS011;67943;54.412;9.502;2024-02-16T11:13:15;8.38;;;3.63;;
78622;SDS011;67943;54.412;9.502;2024-02-16T11:18:25;6.18;;;3.03;;
78622;SDS011;67943;54.412;9.502;2024-02-16T11:23:27;7.32;;;2.80;;
78622;SDS011;67943;54.412;9.502;2024-02-16T11:28:32;5.28;;;2.85;;
78622;SDS011;67943;54.412;9.502;2024-02-16T11:33:35;7.03;;;3.13;;
78622;SDS011;67943;54.412;9.502;2024-02-16T11:38:37;5.30;;;2.70;;
78622;SDS011;67943;54.412;9.502;2024-02-16T11:43:40;5.60;;;3.05;;
78622;SDS011;67943;54.412;9.502;2024-02-16T11:48:42;9.07;;;3.28;;
78622;SDS011;67943;54.412;9.502;2024-02-16T11:53:43;7.70;;;3.00;;
78622;SDS011;67943;54.412;9.502;2024-02-16T11:58:47;7.97;;;3.08;;
78622;SDS011;67943;54.412;9.502;2024-02-16T12:03:48;6.97;;;3.40;;
78622;SDS011;67943;54.412;9.502;2024-02-16T12:08:50;4.93;;;3.10;;
78622;SDS011;67943;54.412;9.502;2024-02-16T12:13:54;7.70;;;3.25;;
78622;SDS011;67943;54.412;9.502;2024-02-16T12:19:02;5.38;;;3.40;;
78622;SDS011;67943;54.412;9.502;2024-02-16T12:24:09;6.00;;;3.92;;
78622;SDS011;67943;54.412;9.502;2024-02-16T12:29:13;7.68;;;3.58;;
78622;SDS011;67943;54.412;9.502;2024-02-16T12:34:16;6.90;;;3.53;;
78622;SDS011;67943;54.412;9.502;2024-02-16T12:39:17;8.15;;;4.03;;
78622;SDS011;67943;54.412;9.502;2024-02-16T12:44:20;6.43;;;3.92;;
78622;SDS011;67943;54.412;9.502;2024-02-16T12:49:22;8.38;;;4.10;;
78622;SDS011;67943;54.412;9.502;2024-02-16T12:54:26;7.25;;;4.10;;
78622;SDS011;67943;54.412;9.502;2024-02-16T12:59:29;8.73;;;4.57;;
78622;SDS011;67943;54.412;9.502;2024-02-16T13:04:31;7.47;;;3.83;;
78622;SDS011;67943;54.412;9.502;2024-02-16T13:09:32;8.05;;;4.50;;
78622;SDS011;67943;54.412;9.502;2024-02-16T13:14:35;9.30;;;4.88;;
78622;SDS011;67943;54.412;9.502;2024-02-16T13:19:37;8.43;;;5.53;;
78622;SDS011;67943;54.412;9.502;2024-02-16T13:24:47;8.30;;;4.78;;
78622;SDS011;67943;54.412;9.502;2024-02-16T13:29:50;8.90;;;5.15;;
78622;SDS011;67943;54.412;9.502;2024-02-16T13:34:52;10.95;;;5.50;;
78622;SDS011;67943;54.412;9.502;2024-02-16T13:39:54;9.98;;;5.50;;
78622;SDS011;67943;54.412;9.502;2024-02-16T13:44:56;11.93;;;5.80;;
78622;SDS011;67943;54.412;9.502;2024-02-16T13:49:58;10.50;;;5.18;;
78622;SDS011;67943;54.412;9.502;2024-02-16T13:55:00;10.70;;;6.45;;
78622;SDS011;67943;54.412;9.502;2024-02-16T14:00:03;12.90;;;6.63;;
78622;SDS011;67943;54.412;9.502;2024-02-16T14:05:05;11.60;;;6.32;;
78622;SDS011;67943;54.412;9.502;2024-02-16T14:10:07;16.10;;;9.18;;
78622;SDS011;67943;54.412;9.502;2024-02-16T14:15:11;18.27;;;10.68;;
78622;SDS011;67943;54.412;9.502;2024-02-16T14:20:15;11.18;;;6.90;;
78622;SDS011;67943;54.412;9.502;2024-02-16T14:25:17;10.32;;;6.80;;
78622;SDS011;67943;54.412;9.502;2024-02-16T14:30:20;8.50;;;5.95;;
78622;SDS011;67943;54.412;9.502;2024-02-16T14:35:22;10.63;;;6.10;;
78622;SDS011;67943;54.412;9.502;2024-02-16T14:40:23;10.30;;;6.45;;
78622;SDS011;67943;54.412;9.502;2024-02-16T14:45:26;8.50;;;5.38;;
78622;SDS011;67943;54.412;9.502;2024-02-16T14:50:28;7.20;;;4.88;;
78622;SDS011;67943;54.412;9.502;2024-02-16T14:55:30;8.40;;;4.95;;
78622;SDS011;67943;54.412;9.502;2024-02-16T15:00:33;7.55;;;4.00;;
78622;SDS011;67943;54.412;9.502;2024-02-16T15:05:35;7.70;;;4.43;;
78622;SDS011;67943;54.412;9.502;2024-02-16T15:10:38;6.50;;;3.95;;
78622;SDS011;67943;54.412;9.502;2024-02-16T15:15:41;7.30;;;4.43;;
78622;SDS011;67943;54.412;9.502;2024-02-16T15:20:48;5.72;;;3.58;;
78622;SDS011;67943;54.412;9.502;2024-02-16T15:25:49;8.55;;;3.95;;
78622;SDS011;67943;54.412;9.502;2024-02-16T15:30:52;7.32;;;4.10;;
78622;SDS011;67943;54.412;9.502;2024-02-16T15:35:53;9.10;;;4.43;;
78622;SDS011;67943;54.412;9.502;2024-02-16T15:40:57;6.97;;;4.22;;
78622;SDS011;67943;54.412;9.502;2024-02-16T15:46:00;8.05;;;4.95;;
78622;SDS011;67943;54.412;9.502;2024-02-16T15:51:05;6.97;;;4.25;;
78622;SDS011;67943;54.412;9.502;2024-02-16T15:56:07;14.55;;;6.60;;
78622;SDS011;67943;54.412;9.502;2024-02-16T16:01:10;9.35;;;4.75;;
78622;SDS011;67943;54.412;9.502;2024-02-16T16:06:11;9.23;;;4.85;;
78622;SDS011;67943;54.412;9.502;2024-02-16T16:11:13;10.45;;;5.15;;
78622;SDS011;67943;54.412;9.502;2024-02-16T16:16:16;9.23;;;5.15;;
78622;SDS011;67943;54.412;9.502;2024-02-16T16:21:17;9.93;;;5.15;;
78622;SDS011;67943;54.412;9.502;2024-02-16T16:26:19;11.98;;;6.38;;
78622;SDS011;67943;54.412;9.502;2024-02-16T16:31:25;11.85;;;6.40;;
78622;SDS011;67943;54.412;9.502;2024-02-16T16:36:27;11.40;;;5.55;;
78622;SDS011;67943;54.412;9.502;2024-02-16T16:41:28;11.30;;;5.95;;
78622;SDS011;67943;54.412;9.502;2024-02-16T16:46:31;10.93;;;5.32;;
78622;SDS011;67943;54.412;9.502;2024-02-16T16:51:38;8.52;;;5.07;;
78622;SDS011;67943;54.412;9.502;2024-02-16T16:56:40;9.57;;;5.53;;
78622;SDS011;67943;54.412;9.502;2024-02-16T17:01:42;12.50;;;5.47;;
78622;SDS011;67943;54.412;9.502;2024-02-16T17:06:44;11.95;;;5.85;;
78622;SDS011;67943;54.412;9.502;2024-02-16T17:11:46;12.00;;;5.32;;
78622;SDS011;67943;54.412;9.502;2024-02-16T17:16:48;12.82;;;5.68;;
78622;SDS011;67943;54.412;9.502;2024-02-16T17:21:55;11.10;;;5.78;;
78622;SDS011;67943;54.412;9.502;2024-02-16T17:26:57;12.90;;;5.53;;
78622;SDS011;67943;54.412;9.502;2024-02-16T17:32:00;11.73;;;6.03;;
78622;SDS011;67943;54.412;9.502;2024-02-16T17:37:02;10.93;;;5.47;;
78622;SDS011;67943;54.412;9.502;2024-02-16T17:42:04;10.75;;;5.00;;
78622;SDS011;67943;54.412;9.502;2024-02-16T17:47:08;11.73;;;5.30;;
78622;SDS011;67943;54.412;9.502;2024-02-16T17:52:09;9.43;;;4.65;;
78622;SDS011;67943;54.412;9.502;2024-02-16T17:57:11;9.15;;;4.45;;
78622;SDS011;67943;54.412;9.502;2024-02-16T18:02:14;12.82;;;5.25;;
78622;SDS011;67943;54.412;9.502;2024-02-16T18:07:15;12.02;;;4.82;;
78622;SDS011;67943;54.412;9.502;2024-02-16T18:12:17;14.43;;;7.32;;
78622;SDS011;67943;54.412;9.502;2024-02-16T18:17:20;9.45;;;4.20;;
78622;SDS011;67943;54.412;9.502;2024-02-16T18:22:30;12.18;;;5.00;;
78622;SDS011;67943;54.412;9.502;2024-02-16T18:27:32;19.88;;;8.93;;
78622;SDS011;67943;54.412;9.502;2024-02-16T18:32:35;11.55;;;4.57;;
78622;SDS011;67943;54.412;9.502;2024-02-16T18:37:37;11.23;;;4.90;;
78622;SDS011;67943;54.412;9.502;2024-02-16T18:42:39;11.95;;;4.57;;
78622;SDS011;67943;54.412;9.502;2024-02-16T18:47:42;13.40;;;4.78;;
78622;SDS011;67943;54.412;9.502;2024-02-16T18:52:48;15.48;;;5.43;;
78622;SDS011;67943;54.412;9.502;2024-02-16T18:57:50;13.88;;;5.70;;
78622;SDS011;67943;54.412;9.502;2024-02-16T19:02:54;12.00;;;5.85;;
78622;SDS011;67943;54.412;9.502;2024-02-16T19:07:55;15.60;;;6.15;;
78622;SDS011;67943;54.412;9.502;2024-02-16T19:12:57;15.20;;;6.00;;
78622;SDS011;67943;54.412;9.502;2024-02-16T19:18:00;21.60;;;6.15;;
78622;SDS011;67943;54.412;9.502;2024-02-16T19:23:03;17.15;;;6.78;;
78622;SDS011;67943;54.412;9.502;2024-02-16T19:28:07;13.77;;;6.07;;
78622;SDS011;67943;54.412;9.502;2024-02-16T19:33:10;10.38;;;5.30;;
78622;SDS011;67943;54.412;9.502;2024-02-16T19:38:11;9.70;;;5.00;;
78622;SDS011;67943;54.412;9.502;2024-02-16T19:43:13;11.88;;;5.53;;
78622;SDS011;67943;54.412;9.502;2024-02-16T19:48:20;10.77;;;5.57;;
78622;SDS011;67943;54.412;9.502;2024-02-16T19:53:27;9.60;;;5.30;;
78622;SDS011;67943;54.412;9.502;2024-02-16T19:58:28;11.50;;;4.35;;
78622;SDS011;67943;54.412;9.502;2024-02-16T20:03:31;8.15;;;3.75;;
78622;SDS011;67943;54.412;9.502;2024-02-16T20:08:34;9.25;;;3.65;;
78622;SDS011;67943;54.412;9.502;2024-02-16T20:13:35;12.15;;;4.53;;
78622;SDS011;67943;54.412;9.502;2024-02-16T20:18:38;10.80;;;4.55;;
78622;SDS011;67943;54.412;9.502;2024-02-16T20:23:45;14.50;;;4.53;;
78622;SDS011;67943;54.412;9.502;2024-02-16T20:28:46;14.27;;;5.45;;
78622;SDS011;67943;54.412;9.502;2024-02-16T20:33:49;11.93;;;5.30;;
78622;SDS011;67943;54.412;9.502;2024-02-16T20:38:51;13.80;;;6.13;;
78622;SDS011;67943;54.412;9.502;2024-02-16T20:43:54;15.75;;;6.22;;
78622;SDS011;67943;54.412;9.502;2024-02-16T20:48:57;17.83;;;6.07;;
78622;SDS011;67943;54.412;9.502;2024-02-16T20:53:59;20.10;;;5.80;;
78622;SDS011;67943;54.412;9.502;2024-02-16T20:59:01;17.90;;;6.40;;
78622;SDS011;67943;54.412;9.502;2024-02-16T21:04:04;16.65;;;5.53;;
78622;SDS011;67943;54.412;9.502;2024-02-16T21:09:06;12.35;;;5.30;;
78622;SDS011;67943;54.412;9.502;2024-02-16T21:14:10;6.97;;;3.28;;
78622;SDS011;67943;54.412;9.502;2024-02-16T21:19:13;6.45;;;3.05;;
78622;SDS011;67943;54.412;9.502;2024-02-16T21:24:15;7.15;;;3.13;;
78622;SDS011;67943;54.412;9.502;2024-02-16T21:29:20;8.57;;;2.78;;
78622;SDS011;67943;54.412;9.502;2024-02-16T21:34:23;8.00;;;3.33;;
78622;SDS011;67943;54.412;9.502;2024-02-16T21:39:25;6.35;;;2.70;;
78622;SDS011;67943;54.412;9.502;2024-02-16T21:44:26;8.88;;;2.55;;
78622;SDS011;67943;54.412;9.502;2024-02-16T21:49:29;6.07;;;2.72;;
78622;SDS011;67943;54.412;9.502;2024-02-16T21:54:31;5.53;;;2.35;;
78622;SDS011;67943;54.412;9.502;2024-02-16T21:59:32;3.55;;;2.10;;
78622;SDS011;67943;54.412;9.502;2024-02-16T22:04:35;4.65;;;2.00;;
78622;SDS011;67943;54.412;9.502;2024-02-16T22:09:37;3.40;;;2.03;;
78622;SDS011;67943;54.412;9.502;2024-02-16T22:14:38;2.95;;;1.50;;
78622;SDS011;67943;54.412;9.502;2024-02-16T22:19:42;2.47;;;1.60;;
78622;SDS011;67943;54.412;9.502;2024-02-16T22:24:43;3.00;;;1.58;;
78622;SDS011;67943;54.412;9.502;2024-02-16T22:29:45;3.10;;;1.75;;
78622;SDS011;67943;54.412;9.502;2024-02-16T22:34:48;3.90;;;1.77;;
78622;SDS011;67943;54.412;9.502;2024-02-16T22:39:49;3.35;;;1.75;;
78622;SDS011;67943;54.412;9.502;2024-02-16T22:44:51;3.05;;;1.90;;
78622;SDS011;67943;54.412;9.502;2024-02-16T22:49:54;5.25;;;2.38;;
78622;SDS011;67943;54.412;9.502;2024-02-16T22:55:01;5.72;;;2.47;;
78622;SDS011;67943;54.412;9.502;2024-02-16T23:00:05;5.30;;;2.25;;
78622;SDS011;67943;54.412;9.502;2024-02-16T23:05:19;3.47;;;1.80;;
78622;SDS011;67943;54.412;9.502;2024-02-16T23:10:22;6.30;;;2.40;;
78622;SDS011;67943;54.412;9.502;2024-02-16T23:15:23;4.30;;;2.53;;
78622;SDS011;67943;54.412;9.502;2024-02-16T23:20:26;4.70;;;2.30;;
78622;SDS011;67943;54.412;9.502;2024-02-16T23:25:28;6.72;;;2.28;;
78622;SDS011;67943;54.412;9.502;2024-02-16T23:30:30;4.93;;;2.47;;
78622;SDS011;67943;54.412;9.502;2024-02-16T23:35:33;6.10;;;2.10;;
78622;SDS011;67943;54.412;9.502;2024-02-16T23:40:35;4.55;;;1.63;;
78622;SDS011;67943;54.412;9.502;2024-02-16T23:45:36;2.67;;;0.82;;
78622;SDS011;67943;54.412;9.502;2024-02-16T23:50:39;3.05;;;0.50;;
78622;SDS011;67943;54.412;9.502;2024-02-16T23:55:40;2.28;;;0.73;;
